Dart — OUOV2 — position and weather

sailwx.info

Track history (hours):
 
Tides and Currents Weather Stations Pressure Air Temp Water Temp Dewpoint Dewpoint Depression Visibility Wind Speed Wind Dir Waves Ship Positions

Dart

Last reported at 2015-Jan-29 04:30 UTC. Time now 2015-Jan-30 06:28 UTC.
Position N 64°45' E 010°60'.

Length 66 m; draft 4 m.

Type: Tanker. MMSI: 219416000.

Date/timePositionNaut miles runAvg speedWind from/ knotsBaromVisibWave heightAir tempDewpointWater temp
2015-Jan-29 04:30N 64°45' E 010°60'109 9.0
2015-Jan-28 16:27N 66°23' E 012°58'8 9.3
2015-Jan-28 15:33N 66°31' E 012°58'13 8.9
2015-Jan-28 14:05N 66°43' E 013°11'14 9.3
2015-Jan-28 12:33N 66°55' E 013°30'12 8.5
2015-Jan-28 11:10N 67°03' E 013°52'6 9.8
2015-Jan-28 10:33N 67°08' E 014°01'10 9.7
2015-Jan-28 09:33N 67°16' E 014°14'10 9.9
2015-Jan-28 08:33N 67°25' E 014°27'10 9.5
2015-Jan-28 07:33N 67°34' E 014°20'9 9.5
2015-Jan-28 06:33N 67°44' E 014°17'150 8.7
2015-Jan-27 13:21N 69°35' E 018°51'7 8.6
2015-Jan-27 12:31N 69°41' E 019°02'85 8.5
2015-Jan-27 02:34N 70°28' E 022°29'10 9.7
2015-Jan-27 01:34N 70°31' E 022°57'9 9.2
2015-Jan-27 00:33N 70°37' E 023°17'7 7.4
2015-Jan-26 23:34N 70°38' E 023°39'0 0.1
2015-Jan-26 22:33N 70°38' E 023°39'0 0.0
2015-Jan-26 21:33N 70°38' E 023°39'0 0.0
2015-Jan-26 20:33N 70°38' E 023°39'0 0.0
2015-Jan-26 19:33N 70°38' E 023°39'0 0.0
2015-Jan-26 18:33N 70°38' E 023°39'0 0.0
2015-Jan-26 17:33N 70°38' E 023°39'0 0.0
2015-Jan-26 16:33N 70°38' E 023°39'8 8.0
2015-Jan-26 15:33N 70°36' E 023°16'1111.2
2015-Jan-26 14:33N 70°30' E 022°49'9 9.5
2015-Jan-26 13:33N 70°27' E 022°21'239 9.9
2015-Jan-25 13:33N 67°43' E 014°16'1010.5
2015-Jan-25 12:33N 67°33' E 014°21'1010.3
2015-Jan-25 11:33N 67°22' E 014°24'1111.0
2015-Jan-25 10:33N 67°13' E 014°08'1311.0
2015-Jan-25 09:24N 67°03' E 013°51'910.4
2015-Jan-25 08:32N 66°58' E 013°31'37 2.1
2015-Jan-24 14:32N 66°23' E 012°58'10 8.8
2015-Jan-24 13:27N 66°33' E 012°59'18 8.4
2015-Jan-24 11:19N 66°49' E 013°16'7 9.1
2015-Jan-24 10:33N 66°54' E 013°27'9 8.2
2015-Jan-24 09:28N 67°00' E 013°44'9 9.9
2015-Jan-24 08:33N 67°07' E 013°60'10 9.9
2015-Jan-24 07:33N 67°16' E 014°12'10 9.9
2015-Jan-24 06:33N 67°24' E 014°26'8 8.1
2015-Jan-24 05:33N 67°32' E 014°21'8 8.3
2015-Jan-24 04:33N 67°40' E 014°17'7 7.3
2015-Jan-24 03:33N 67°47' E 014°21'232 9.2
2015-Jan-23 02:16N 70°27' E 022°14'1010.1
2015-Jan-23 01:18N 70°29' E 022°43'7 8.8
2015-Jan-23 00:33N 70°32' E 023°01'9 9.4
2015-Jan-22 23:34N 70°38' E 023°22'6 5.5
2015-Jan-22 22:32N 70°38' E 023°39'0 0.0
2015-Jan-22 21:32N 70°38' E 023°39'0 0.0
2015-Jan-22 20:32N 70°38' E 023°39'0 0.0
2015-Jan-22 19:32N 70°38' E 023°39'0 0.0
2015-Jan-22 18:32N 70°38' E 023°39'0 0.0
2015-Jan-22 17:32N 70°38' E 023°39'0 0.1
2015-Jan-22 16:33N 70°38' E 023°39'0 0.3
2015-Jan-22 15:31N 70°38' E 023°38'0 0.0
2015-Jan-22 14:31N 70°38' E 023°38'0 0.0
2015-Jan-22 13:31N 70°38' E 023°38'0 0.0
2015-Jan-22 12:31N 70°38' E 023°38'0 0.0
2015-Jan-22 11:31N 70°38' E 023°38'0 0.0
2015-Jan-22 10:31N 70°38' E 023°38'0 0.0
2015-Jan-22 09:31N 70°38' E 023°38'0 0.0
2015-Jan-22 08:31N 70°38' E 023°38'0 0.0
2015-Jan-22 07:31N 70°38' E 023°38'0 0.0
2015-Jan-22 06:31N 70°38' E 023°38'0 0.0
2015-Jan-22 05:31N 70°38' E 023°38'0 0.0
2015-Jan-22 04:31N 70°38' E 023°38'0 0.0
2015-Jan-22 03:31N 70°38' E 023°38'0 0.0
2015-Jan-22 02:31N 70°38' E 023°38'0 0.0
2015-Jan-22 01:31N 70°38' E 023°38'0 0.0
2015-Jan-22 00:31N 70°38' E 023°38'0 0.0
2015-Jan-21 23:31N 70°38' E 023°38'0 0.0
2015-Jan-21 22:49N 70°38' E 023°38'0 0.1
2015-Jan-21 22:46N 70°38' E 023°38'0 0.0
2015-Jan-21 22:31N 70°38' E 023°38'0 0.0
2015-Jan-21 21:31N 70°38' E 023°38'0 0.0
2015-Jan-21 20:31N 70°38' E 023°38'0 0.0
2015-Jan-21 19:31N 70°38' E 023°38'0 0.0
2015-Jan-21 18:31N 70°38' E 023°38'0 0.0
2015-Jan-21 17:31N 70°38' E 023°38'0 0.0
2015-Jan-21 16:31N 70°38' E 023°38'0 0.0
2015-Jan-21 15:31N 70°38' E 023°38'0 0.0
2015-Jan-21 14:33N 70°38' E 023°38'0 0.0
2015-Jan-21 13:33N 70°38' E 023°38'0 0.0
2015-Jan-21 12:33N 70°38' E 023°38'0 0.0
2015-Jan-21 11:33N 70°38' E 023°38'0 0.0
2015-Jan-21 10:33N 70°38' E 023°38'0 0.0
2015-Jan-21 09:33N 70°38' E 023°38'0 0.0
2015-Jan-21 08:33N 70°38' E 023°38'0 0.0
2015-Jan-21 07:33N 70°38' E 023°38'0 0.3
2015-Jan-21 06:33N 70°38' E 023°39'0 0.0
2015-Jan-21 05:33N 70°38' E 023°39'0 0.0
2015-Jan-21 04:33N 70°38' E 023°39'2 1.5
2015-Jan-21 03:33N 70°37' E 023°35'10 9.9
2015-Jan-21 02:33N 70°34' E 023°07'1311.0
2015-Jan-21 01:22N 70°28' E 022°31'8210.5
2015-Jan-20 17:30N 69°45' E 019°05'6 6.7
2015-Jan-20 16:33N 69°39' E 018°59'153 9.5
2015-Jan-20 00:29N 67°45' E 014°19'910.0
2015-Jan-19 23:33N 67°35' E 014°19'1110.8
2015-Jan-19 22:34N 67°25' E 014°27'1110.5
2015-Jan-19 21:33N 67°16' E 014°13'1110.7
2015-Jan-19 20:33N 67°07' E 013°59'1210.7
2015-Jan-19 19:26N 66°58' E 013°38'18 9.4
2015-Jan-19 17:32N 66°44' E 013°11'1110.4
2015-Jan-19 16:31N 66°33' E 013°04'9 8.5
2015-Jan-19 15:28N 66°25' E 012°59'1310.5
2015-Jan-19 14:16N 66°12' E 012°52'8 9.6
2015-Jan-19 13:25N 66°05' E 012°42'49 9.8
2015-Jan-19 08:26N 65°20' E 012°01'1010.5
2015-Jan-19 07:30N 65°11' E 011°51'910.0
2015-Jan-19 06:33N 65°02' E 011°41'9 9.4
2015-Jan-19 05:33N 64°57' E 011°23'1010.4
2015-Jan-19 04:33N 64°49' E 011°08'  
Track history (hours):
 
Tides and Currents Weather Stations Pressure Air Temp Water Temp Dewpoint Dewpoint Depression Visibility Wind Speed Wind Dir Waves Ship Positions

Dart

Last reported at 2015-Jan-29 04:30 UTC. Time now 2015-Jan-30 06:28 UTC.
Position N 64°45' E 010°60'.

Length 66 m; draft 4 m.

Type: Tanker. MMSI: 219416000.

Date/timePositionNaut miles runAvg speedWind from/ knotsBaromVisibWave heightAir tempDewpointWater temp
2015-Jan-29 04:30N 64°45' E 010°60'109 9.0
2015-Jan-28 16:27N 66°23' E 012°58'8 9.3
2015-Jan-28 15:33N 66°31' E 012°58'13 8.9
2015-Jan-28 14:05N 66°43' E 013°11'14 9.3
2015-Jan-28 12:33N 66°55' E 013°30'12 8.5
2015-Jan-28 11:10N 67°03' E 013°52'6 9.8
2015-Jan-28 10:33N 67°08' E 014°01'10 9.7
2015-Jan-28 09:33N 67°16' E 014°14'10 9.9
2015-Jan-28 08:33N 67°25' E 014°27'10 9.5
2015-Jan-28 07:33N 67°34' E 014°20'9 9.5
2015-Jan-28 06:33N 67°44' E 014°17'150 8.7
2015-Jan-27 13:21N 69°35' E 018°51'7 8.6
2015-Jan-27 12:31N 69°41' E 019°02'85 8.5
2015-Jan-27 02:34N 70°28' E 022°29'10 9.7
2015-Jan-27 01:34N 70°31' E 022°57'9 9.2
2015-Jan-27 00:33N 70°37' E 023°17'7 7.4
2015-Jan-26 23:34N 70°38' E 023°39'0 0.1
2015-Jan-26 22:33N 70°38' E 023°39'0 0.0
2015-Jan-26 21:33N 70°38' E 023°39'0 0.0
2015-Jan-26 20:33N 70°38' E 023°39'0 0.0
2015-Jan-26 19:33N 70°38' E 023°39'0 0.0
2015-Jan-26 18:33N 70°38' E 023°39'0 0.0
2015-Jan-26 17:33N 70°38' E 023°39'0 0.0
2015-Jan-26 16:33N 70°38' E 023°39'8 8.0
2015-Jan-26 15:33N 70°36' E 023°16'1111.2
2015-Jan-26 14:33N 70°30' E 022°49'9 9.5
2015-Jan-26 13:33N 70°27' E 022°21'239 9.9
2015-Jan-25 13:33N 67°43' E 014°16'1010.5
2015-Jan-25 12:33N 67°33' E 014°21'1010.3
2015-Jan-25 11:33N 67°22' E 014°24'1111.0
2015-Jan-25 10:33N 67°13' E 014°08'1311.0
2015-Jan-25 09:24N 67°03' E 013°51'910.4
2015-Jan-25 08:32N 66°58' E 013°31'37 2.1
2015-Jan-24 14:32N 66°23' E 012°58'10 8.8
2015-Jan-24 13:27N 66°33' E 012°59'18 8.4
2015-Jan-24 11:19N 66°49' E 013°16'7 9.1
2015-Jan-24 10:33N 66°54' E 013°27'9 8.2
2015-Jan-24 09:28N 67°00' E 013°44'9 9.9
2015-Jan-24 08:33N 67°07' E 013°60'10 9.9
2015-Jan-24 07:33N 67°16' E 014°12'10 9.9
2015-Jan-24 06:33N 67°24' E 014°26'8 8.1
2015-Jan-24 05:33N 67°32' E 014°21'8 8.3
2015-Jan-24 04:33N 67°40' E 014°17'7 7.3
2015-Jan-24 03:33N 67°47' E 014°21'232 9.2
2015-Jan-23 02:16N 70°27' E 022°14'1010.1
2015-Jan-23 01:18N 70°29' E 022°43'7 8.8
2015-Jan-23 00:33N 70°32' E 023°01'9 9.4
2015-Jan-22 23:34N 70°38' E 023°22'6 5.5
2015-Jan-22 22:32N 70°38' E 023°39'0 0.0
2015-Jan-22 21:32N 70°38' E 023°39'0 0.0
2015-Jan-22 20:32N 70°38' E 023°39'0 0.0
2015-Jan-22 19:32N 70°38' E 023°39'0 0.0
2015-Jan-22 18:32N 70°38' E 023°39'0 0.0
2015-Jan-22 17:32N 70°38' E 023°39'0 0.1
2015-Jan-22 16:33N 70°38' E 023°39'0 0.3
2015-Jan-22 15:31N 70°38' E 023°38'0 0.0
2015-Jan-22 14:31N 70°38' E 023°38'0 0.0
2015-Jan-22 13:31N 70°38' E 023°38'0 0.0
2015-Jan-22 12:31N 70°38' E 023°38'0 0.0
2015-Jan-22 11:31N 70°38' E 023°38'0 0.0
2015-Jan-22 10:31N 70°38' E 023°38'0 0.0
2015-Jan-22 09:31N 70°38' E 023°38'0 0.0
2015-Jan-22 08:31N 70°38' E 023°38'0 0.0
2015-Jan-22 07:31N 70°38' E 023°38'0 0.0
2015-Jan-22 06:31N 70°38' E 023°38'0 0.0
2015-Jan-22 05:31N 70°38' E 023°38'0 0.0
2015-Jan-22 04:31N 70°38' E 023°38'0 0.0
2015-Jan-22 03:31N 70°38' E 023°38'0 0.0
2015-Jan-22 02:31N 70°38' E 023°38'0 0.0
2015-Jan-22 01:31N 70°38' E 023°38'0 0.0
2015-Jan-22 00:31N 70°38' E 023°38'0 0.0
2015-Jan-21 23:31N 70°38' E 023°38'0 0.0
2015-Jan-21 22:49N 70°38' E 023°38'0 0.1
2015-Jan-21 22:46N 70°38' E 023°38'0 0.0
2015-Jan-21 22:31N 70°38' E 023°38'0 0.0
2015-Jan-21 21:31N 70°38' E 023°38'0 0.0
2015-Jan-21 20:31N 70°38' E 023°38'0 0.0
2015-Jan-21 19:31N 70°38' E 023°38'0 0.0
2015-Jan-21 18:31N 70°38' E 023°38'0 0.0
2015-Jan-21 17:31N 70°38' E 023°38'0 0.0
2015-Jan-21 16:31N 70°38' E 023°38'0 0.0
2015-Jan-21 15:31N 70°38' E 023°38'0 0.0
2015-Jan-21 14:33N 70°38' E 023°38'0 0.0
2015-Jan-21 13:33N 70°38' E 023°38'0 0.0
2015-Jan-21 12:33N 70°38' E 023°38'0 0.0
2015-Jan-21 11:33N 70°38' E 023°38'0 0.0
2015-Jan-21 10:33N 70°38' E 023°38'0 0.0
2015-Jan-21 09:33N 70°38' E 023°38'0 0.0
2015-Jan-21 08:33N 70°38' E 023°38'0 0.0
2015-Jan-21 07:33N 70°38' E 023°38'0 0.3
2015-Jan-21 06:33N 70°38' E 023°39'0 0.0
2015-Jan-21 05:33N 70°38' E 023°39'0 0.0
2015-Jan-21 04:33N 70°38' E 023°39'2 1.5
2015-Jan-21 03:33N 70°37' E 023°35'10 9.9
2015-Jan-21 02:33N 70°34' E 023°07'1311.0
2015-Jan-21 01:22N 70°28' E 022°31'8210.5
2015-Jan-20 17:30N 69°45' E 019°05'6 6.7
2015-Jan-20 16:33N 69°39' E 018°59'153 9.5
2015-Jan-20 00:29N 67°45' E 014°19'910.0
2015-Jan-19 23:33N 67°35' E 014°19'1110.8
2015-Jan-19 22:34N 67°25' E 014°27'1110.5
2015-Jan-19 21:33N 67°16' E 014°13'1110.7
2015-Jan-19 20:33N 67°07' E 013°59'1210.7
2015-Jan-19 19:26N 66°58' E 013°38'18 9.4
2015-Jan-19 17:32N 66°44' E 013°11'1110.4
2015-Jan-19 16:31N 66°33' E 013°04'9 8.5
2015-Jan-19 15:28N 66°25' E 012°59'1310.5
2015-Jan-19 14:16N 66°12' E 012°52'8 9.6
2015-Jan-19 13:25N 66°05' E 012°42'49 9.8
2015-Jan-19 08:26N 65°20' E 012°01'1010.5
2015-Jan-19 07:30N 65°11' E 011°51'910.0
2015-Jan-19 06:33N 65°02' E 011°41'9 9.4
2015-Jan-19 05:33N 64°57' E 011°23'1010.4
2015-Jan-19 04:33N 64°49' E 011°08'  

Dump ship's entire track history